Time;durP1;ratioP1;P1;durP2;ratioP2;P2;SDS_P1;SDS_P2;PMS_P1;PMS_P2;Temp;Humidity;BMP_temperature;BMP_pressure;BME280_temperature;BME280_humidity;BME280_pressure;Samples;Min_cycle;Max_cycle;Signal;HPM_P1;HPM_P2
2020/12/06 00:01:58;;;;;;;18.23;11.68;;;;;;;;;;5072904;28;20090;-70
2020/12/06 00:04:27;;;;;;;17.00;10.23;;;;;;;;;;5072845;28;20033;-72
2020/12/06 00:06:53;;;;;;;18.33;10.95;;;;;;;;;;5071706;28;20025;-70
2020/12/06 00:09:19;;;;;;;24.27;10.95;;;;;;;;;;5072231;28;20029;-71
2020/12/06 00:11:45;;;;;;;15.88;10.20;;;;;;;;;;5070711;28;20027;-69
2020/12/06 00:14:11;;;;;;;14.88;9.35;;;;;;;;;;5071900;28;20056;-73
2020/12/06 00:16:37;;;;;;;20.02;9.60;;;;;;;;;;5073367;28;20017;-70
2020/12/06 00:19:04;;;;;;;14.88;9.98;;;;;;;;;;5072633;28;20133;-72
2020/12/06 00:21:30;;;;;;;16.95;10.25;;;;;;;;;;5072071;28;20028;-72
2020/12/06 00:23:56;;;;;;;13.82;8.52;;;;;;;;;;5072625;28;20097;-72
2020/12/06 00:26:22;;;;;;;13.07;8.65;;;;;;;;;;5073164;28;20052;-72
2020/12/06 00:28:49;;;;;;;13.98;9.88;;;;;;;;;;5074322;28;20142;-71
2020/12/06 00:31:15;;;;;;;14.25;9.52;;;;;;;;;;5073547;28;20024;-72
2020/12/06 00:33:41;;;;;;;17.05;11.02;;;;;;;;;;5074348;28;20033;-69
2020/12/06 00:36:11;;;;;;;14.23;8.85;;;;;;;;;;5071571;28;20587;-68
2020/12/06 00:38:37;;;;;;;15.93;9.55;;;;;;;;;;5074278;28;20078;-70
2020/12/06 00:41:03;;;;;;;15.60;9.15;;;;;;;;;;5071743;28;20108;-69
2020/12/06 00:43:30;;;;;;;17.17;10.18;;;;;;;;;;5073895;28;20068;-71
2020/12/06 00:45:56;;;;;;;15.60;10.57;;;;;;;;;;5073423;28;20074;-69
2020/12/06 00:48:22;;;;;;;13.88;9.07;;;;;;;;;;5074207;28;20099;-71
2020/12/06 00:50:48;;;;;;;14.88;9.65;;;;;;;;;;5074063;28;20036;-72
2020/12/06 00:53:14;;;;;;;15.82;9.63;;;;;;;;;;5074342;28;20078;-71
2020/12/06 00:55:40;;;;;;;13.85;9.63;;;;;;;;;;5073538;28;20025;-71
2020/12/06 00:58:06;;;;;;;15.88;9.60;;;;;;;;;;5074019;28;20051;-71
2020/12/06 01:00:32;;;;;;;15.90;9.73;;;;;;;;;;5074219;28;20028;-73
2020/12/06 01:02:58;;;;;;;16.90;9.90;;;;;;;;;;5073077;28;20068;-69
2020/12/06 01:05:24;;;;;;;13.15;9.32;;;;;;;;;;5073802;28;20021;-70
2020/12/06 01:07:50;;;;;;;13.43;8.45;;;;;;;;;;5072533;28;20024;-70
2020/12/06 01:10:16;;;;;;;17.13;10.20;;;;;;;;;;5072336;28;20047;-71
2020/12/06 01:12:43;;;;;;;14.48;8.15;;;;;;;;;;5073417;28;20032;-71
2020/12/06 01:15:10;;;;;;;15.18;9.38;;;;;;;;;;5073747;28;20048;-70
2020/12/06 01:17:36;;;;;;;14.23;8.57;;;;;;;;;;5073421;28;20024;-69
2020/12/06 01:20:03;;;;;;;15.48;10.10;;;;;;;;;;5072963;28;20029;-69
2020/12/06 01:22:30;;;;;;;23.70;9.48;;;;;;;;;;5073663;28;20016;-71
2020/12/06 01:24:56;;;;;;;11.32;8.07;;;;;;;;;;5072632;28;20521;-71
2020/12/06 01:27:22;;;;;;;13.68;8.45;;;;;;;;;;5073682;28;20042;-70
2020/12/06 01:29:48;;;;;;;12.95;7.95;;;;;;;;;;5074046;28;20106;-70
2020/12/06 01:32:14;;;;;;;12.38;8.10;;;;;;;;;;5072390;28;20023;-70
2020/12/06 01:34:40;;;;;;;10.70;7.65;;;;;;;;;;5073554;28;20024;-69
2020/12/06 01:37:06;;;;;;;15.77;8.63;;;;;;;;;;5073361;28;20025;-71
2020/12/06 01:39:32;;;;;;;13.23;7.82;;;;;;;;;;5087746;28;20370;-72
2020/12/06 01:41:59;;;;;;;13.43;9.30;;;;;;;;;;5070937;28;20097;-73
2020/12/06 01:44:26;;;;;;;12.70;8.77;;;;;;;;;;5073129;28;20107;-72
2020/12/06 01:46:53;;;;;;;12.30;8.57;;;;;;;;;;5072618;28;20043;-70
2020/12/06 01:49:20;;;;;;;13.88;8.82;;;;;;;;;;5073570;28;20030;-71
2020/12/06 01:51:47;;;;;;;13.48;9.10;;;;;;;;;;5073016;28;20039;-70
2020/12/06 01:54:14;;;;;;;14.63;8.50;;;;;;;;;;5072177;28;20120;-71
2020/12/06 01:56:40;;;;;;;12.40;7.85;;;;;;;;;;5073432;28;20137;-72
2020/12/06 01:59:06;;;;;;;14.45;8.88;;;;;;;;;;5072826;28;20052;-71
2020/12/06 02:01:32;;;;;;;13.95;8.32;;;;;;;;;;5072194;28;20021;-72
2020/12/06 02:03:58;;;;;;;13.93;8.60;;;;;;;;;;5072874;28;20016;-70
2020/12/06 02:06:24;;;;;;;14.95;8.70;;;;;;;;;;5073052;28;20461;-72
2020/12/06 02:08:50;;;;;;;13.85;8.57;;;;;;;;;;5072117;28;20100;-74
2020/12/06 02:11:36;;;;;;;14.55;8.40;;;;;;;;;;5073083;28;20103;-70
2020/12/06 02:14:02;;;;;;;13.10;9.45;;;;;;;;;;5072705;28;20373;-73
2020/12/06 02:16:28;;;;;;;14.25;8.30;;;;;;;;;;5072007;28;20478;-68
2020/12/06 02:18:54;;;;;;;16.13;8.95;;;;;;;;;;5073018;28;20538;-72
2020/12/06 02:21:21;;;;;;;15.00;8.00;;;;;;;;;;5072368;28;20016;-70
2020/12/06 02:23:47;;;;;;;15.15;8.10;;;;;;;;;;5072281;28;20032;-69
2020/12/06 02:26:13;;;;;;;13.50;8.68;;;;;;;;;;5072832;28;20048;-72
2020/12/06 02:28:39;;;;;;;12.70;7.40;;;;;;;;;;5072058;28;20466;-70
2020/12/06 02:31:05;;;;;;;11.75;7.95;;;;;;;;;;5072433;28;20370;-72
2020/12/06 02:33:31;;;;;;;12.25;7.68;;;;;;;;;;5072573;28;20024;-74
2020/12/06 02:35:57;;;;;;;17.98;8.93;;;;;;;;;;5072079;28;20097;-71
2020/12/06 02:38:23;;;;;;;16.55;9.07;;;;;;;;;;5071665;28;20025;-70
2020/12/06 02:40:49;;;;;;;14.77;8.45;;;;;;;;;;5072318;28;20032;-72
2020/12/06 02:43:15;;;;;;;16.10;9.02;;;;;;;;;;5087595;28;20025;-72
2020/12/06 02:45:41;;;;;;;14.30;8.05;;;;;;;;;;5072204;28;20035;-71
2020/12/06 02:48:07;;;;;;;14.35;8.75;;;;;;;;;;5071571;28;20020;-70
2020/12/06 02:50:33;;;;;;;12.48;7.75;;;;;;;;;;5071949;28;20070;-73
2020/12/06 02:53:00;;;;;;;19.27;9.80;;;;;;;;;;5071755;28;20059;-71
2020/12/06 02:55:26;;;;;;;13.70;8.73;;;;;;;;;;5083670;28;20441;-70
2020/12/06 02:57:53;;;;;;;13.68;8.25;;;;;;;;;;5067831;28;20032;-69
2020/12/06 03:00:19;;;;;;;16.60;9.43;;;;;;;;;;5072245;28;20035;-69
2020/12/06 03:02:45;;;;;;;19.70;9.15;;;;;;;;;;5072095;28;20053;-70
2020/12/06 03:05:11;;;;;;;16.77;10.07;;;;;;;;;;5072764;28;20036;-72
2020/12/06 03:07:37;;;;;;;14.38;8.55;;;;;;;;;;5072785;28;20028;-72
2020/12/06 03:10:06;;;;;;;13.98;8.95;;;;;;;;;;5072404;28;20355;-72
2020/12/06 03:12:35;;;;;;;15.93;8.95;;;;;;;;;;5072719;28;20023;-71
2020/12/06 03:15:01;;;;;;;14.63;9.35;;;;;;;;;;5072904;28;20055;-71
2020/12/06 03:17:27;;;;;;;11.82;7.40;;;;;;;;;;5072475;28;20032;-71
2020/12/06 03:19:53;;;;;;;15.70;9.45;;;;;;;;;;5072609;28;20104;-70
2020/12/06 03:22:20;;;;;;;14.65;9.23;;;;;;;;;;5073019;28;20071;-70
2020/12/06 03:24:46;;;;;;;15.57;9.60;;;;;;;;;;5072206;28;20131;-71
2020/12/06 03:27:12;;;;;;;14.48;9.10;;;;;;;;;;5072867;28;20021;-71
2020/12/06 03:29:38;;;;;;;15.80;9.05;;;;;;;;;;5072930;28;20025;-69
2020/12/06 03:32:04;;;;;;;13.23;8.70;;;;;;;;;;5087906;28;20044;-69
2020/12/06 03:34:30;;;;;;;16.17;8.73;;;;;;;;;;5072342;28;20078;-70
2020/12/06 03:36:56;;;;;;;13.20;9.63;;;;;;;;;;5072515;28;20048;-70
2020/12/06 03:39:22;;;;;;;13.48;8.90;;;;;;;;;;5071875;28;20025;-69
2020/12/06 03:41:48;;;;;;;13.23;7.70;;;;;;;;;;5072454;28;20377;-70
2020/12/06 03:44:14;;;;;;;10.65;8.02;;;;;;;;;;5072212;28;20024;-69
2020/12/06 03:46:41;;;;;;;14.02;7.97;;;;;;;;;;5072080;28;20359;-70
2020/12/06 03:49:07;;;;;;;13.00;7.95;;;;;;;;;;5072689;28;20048;-71
2020/12/06 03:51:33;;;;;;;14.10;8.65;;;;;;;;;;5072342;28;20016;-72
2020/12/06 03:53:59;;;;;;;16.00;8.48;;;;;;;;;;5071955;28;20141;-71
2020/12/06 03:56:25;;;;;;;12.68;7.53;;;;;;;;;;5072108;28;20027;-70
2020/12/06 03:58:51;;;;;;;11.15;7.57;;;;;;;;;;5072235;28;20447;-71
2020/12/06 04:01:17;;;;;;;13.77;8.50;;;;;;;;;;5087630;28;20020;-72
2020/12/06 04:03:43;;;;;;;11.70;7.15;;;;;;;;;;5072195;28;20119;-70
2020/12/06 04:06:09;;;;;;;13.40;6.97;;;;;;;;;;5074351;28;20028;-73
2020/12/06 04:08:35;;;;;;;12.48;7.35;;;;;;;;;;5076038;28;20016;-70
2020/12/06 04:11:01;;;;;;;12.65;6.63;;;;;;;;;;5076191;28;20462;-71
2020/12/06 04:13:27;;;;;;;9.27;5.65;;;;;;;;;;5075526;28;20067;-70
2020/12/06 04:15:53;;;;;;;11.25;5.70;;;;;;;;;;5075982;28;20020;-72
2020/12/06 04:18:19;;;;;;;11.40;5.97;;;;;;;;;;5075840;28;20033;-72
2020/12/06 04:20:45;;;;;;;14.30;7.50;;;;;;;;;;5075297;28;20100;-70
2020/12/06 04:23:11;;;;;;;10.73;6.85;;;;;;;;;;5075763;28;20032;-71
2020/12/06 04:25:37;;;;;;;9.07;6.95;;;;;;;;;;5075397;28;20453;-71
2020/12/06 04:28:03;;;;;;;11.10;6.68;;;;;;;;;;5091088;28;20024;-71
2020/12/06 04:30:29;;;;;;;15.50;6.60;;;;;;;;;;5075415;28;20027;-72
2020/12/06 04:32:55;;;;;;;12.55;7.15;;;;;;;;;;5075397;28;20116;-72
2020/12/06 04:35:22;;;;;;;17.08;7.15;;;;;;;;;;5090581;28;20074;-70
2020/12/06 04:37:48;;;;;;;10.50;6.85;;;;;;;;;;5075567;28;20354;-71
2020/12/06 04:40:14;;;;;;;8.60;6.43;;;;;;;;;;5075670;28;20056;-70
2020/12/06 04:42:41;;;;;;;9.60;6.70;;;;;;;;;;5075828;28;20020;-71
2020/12/06 04:45:07;;;;;;;12.60;7.07;;;;;;;;;;5075519;28;20024;-71
2020/12/06 04:47:48;;;;;;;11.23;6.25;;;;;;;;;;5074990;28;20035;-71
2020/12/06 04:50:25;;;;;;;8.70;5.97;;;;;;;;;;5075036;28;20024;-71
2020/12/06 04:52:55;;;;;;;8.98;5.85;;;;;;;;;;5072575;28;20765;-71
2020/12/06 04:55:25;;;;;;;10.13;5.72;;;;;;;;;;5063509;28;20021;-71
2020/12/06 04:57:51;;;;;;;8.85;5.88;;;;;;;;;;5075334;28;20484;-71
2020/12/06 05:00:18;;;;;;;7.95;5.20;;;;;;;;;;5074907;28;20024;-71
2020/12/06 05:02:46;;;;;;;9.27;5.65;;;;;;;;;;5074346;28;20481;-71
2020/12/06 05:05:14;;;;;;;8.55;5.70;;;;;;;;;;5074788;28;20028;-71
2020/12/06 05:07:44;;;;;;;8.38;5.60;;;;;;;;;;5073648;28;20028;-71
2020/12/06 05:10:10;;;;;;;9.60;5.63;;;;;;;;;;5074490;28;20035;-71
2020/12/06 05:12:36;;;;;;;10.98;6.20;;;;;;;;;;5074867;28;20091;-71
2020/12/06 05:15:02;;;;;;;8.13;5.13;;;;;;;;;;5074494;28;20025;-71
2020/12/06 05:17:29;;;;;;;9.85;5.85;;;;;;;;;;5083036;28;20029;-71
2020/12/06 05:19:56;;;;;;;8.43;6.00;;;;;;;;;;5074533;28;20044;-71
2020/12/06 05:22:25;;;;;;;15.00;7.53;;;8.40;99.90;;;;;;5083682;28;20031;-71
2020/12/06 05:24:51;;;;;;;13.30;7.10;;;8.50;99.90;;;;;;5067763;28;20044;-71
2020/12/06 05:27:18;;;;;;;13.45;7.80;;;;;;;;;;5074088;28;20403;-71
2020/12/06 05:29:46;;;;;;;9.43;5.47;;;;;;;;;;5074375;28;20025;-71
2020/12/06 05:32:12;;;;;;;8.15;5.57;;;;;;;;;;5073161;28;20013;-70
2020/12/06 05:34:40;;;;;;;9.73;5.47;;;;;;;;;;5074308;28;20056;-70
2020/12/06 05:37:09;;;;;;;9.38;6.50;;;;;;;;;;5074165;28;20381;-70
2020/12/06 05:39:35;;;;;;;6.45;4.65;;;;;;;;;;5085575;28;20493;-70
2020/12/06 05:42:04;;;;;;;10.48;5.35;;;;;;;;;;5065695;28;20381;-71
2020/12/06 05:44:32;;;;;;;7.15;4.57;;;;;;;;;;5073400;28;20029;-70
2020/12/06 05:47:03;;;;;;;7.93;4.97;;;;;;;;;;5074309;28;20027;-70
2020/12/06 05:49:31;;;;;;;7.22;4.97;;;;;;;;;;5073927;28;20025;-71
2020/12/06 05:51:59;;;;;;;7.80;4.72;;;;;;;;;;5089262;28;20480;-70
2020/12/06 05:54:25;;;;;;;8.52;5.47;;;;;;;;;;5073698;28;20494;-69
2020/12/06 05:56:55;;;;;;;8.38;4.70;;;;;;;;;;5073740;28;20465;-69
2020/12/06 05:59:22;;;;;;;8.38;5.32;;;8.40;99.90;;;;;;5072972;28;20397;-69
2020/12/06 06:01:52;;;;;;;8.30;4.55;;;8.20;99.90;;;;;;5073436;28;20355;-70
2020/12/06 06:04:20;;;;;;;8.40;5.50;;;;;;;;;;5073855;28;20020;-70
2020/12/06 06:06:50;;;;;;;8.18;5.68;;;;;;;;;;5073336;28;20021;-71
2020/12/06 06:09:17;;;;;;;6.35;4.40;;;;;;;;;;5073275;28;20378;-70
2020/12/06 06:11:49;;;;;;;7.60;5.00;;;;;;;;;;5073548;28;20028;-70
2020/12/06 06:14:17;;;;;;;5.53;4.07;;;;;;;;;;5073698;28;20056;-70
2020/12/06 06:16:44;;;;;;;7.82;5.00;;;;;;;;;;5073220;28;20036;-70
2020/12/06 06:19:12;;;;;;;7.80;4.95;;;;;;;;;;5073130;28;20025;-70
2020/12/06 06:21:40;;;;;;;7.45;4.95;;;;;;;;;;5073184;28;20021;-70
2020/12/06 06:24:28;;;;;;;11.23;5.30;;;;;;;;;;5073064;28;20085;-69
2020/12/06 06:26:56;;;;;;;7.13;4.32;;;;;;;;;;5073141;28;20037;-71
2020/12/06 06:29:22;;;;;;;9.93;6.07;;;;;;;;;;5072831;28;20484;-70
2020/12/06 06:31:52;;;;;;;8.23;5.47;;;;;;;;;;5088925;28;20024;-69
2020/12/06 06:34:20;;;;;;;7.70;5.38;;;;;;;;;;5072707;28;20045;-70
2020/12/06 06:36:46;;;;;;;9.40;6.60;;;;;;;;;;5089140;28;20017;-70
2020/12/06 06:39:18;;;;;;;12.50;6.63;;;;;;;;;;5088428;28;20020;-71
2020/12/06 06:41:44;;;;;;;7.75;4.85;;;;;;;;;;5088620;28;20032;-71
2020/12/06 06:44:12;;;;;;;7.95;5.28;;;;;;;;;;5073220;28;20033;-71
2020/12/06 06:46:40;;;;;;;7.50;5.45;;;;;;;;;;5073061;28;20053;-71
2020/12/06 06:49:12;;;;;;;12.63;7.57;;;;;;;;;;5072962;28;20020;-71
2020/12/06 06:51:40;;;;;;;9.73;5.85;;;;;;;;;;5063310;28;20102;-71
2020/12/06 06:54:09;;;;;;;10.00;6.53;;;;;;;;;;5073180;28;20462;-71
2020/12/06 06:56:48;;;;;;;12.65;7.63;;;;;;;;;;5072992;28;20082;-70
2020/12/06 06:59:14;;;;;;;12.25;6.00;;;;;;;;;;5072642;28;20052;-71
2020/12/06 07:01:49;;;;;;;8.02;5.70;;;;;;;;;;5072393;28;20106;-71
2020/12/06 07:04:19;;;;;;;11.75;6.95;;;;;;;;;;5072676;28;20444;-71
2020/12/06 07:06:46;;;;;;;8.02;5.45;;;;;;;;;;5072723;28;20426;-71
2020/12/06 07:09:12;;;;;;;10.00;6.35;;;;;;;;;;5088229;28;20462;-72
2020/12/06 07:11:41;;;;;;;9.32;3.83;;;;;;;;;;5072977;28;20024;-72
2020/12/06 07:14:08;;;;;;;11.20;5.95;;;;;;;;;;5088661;28;20028;-70
2020/12/06 07:16:34;;;;;;;11.82;6.45;;;;;;;;;;5072495;28;20112;-71
2020/12/06 07:19:00;;;;;;;14.70;7.55;;;;;;;;;;5072976;28;20095;-71
2020/12/06 07:21:37;;;;;;;9.65;5.70;;;;;;;;;;5087757;28;20025;-69
2020/12/06 07:24:04;;;;;;;13.07;6.75;;;;;;;;;;5072275;28;20068;-71
2020/12/06 07:26:31;;;;;;;10.40;5.72;;;;;;;;;;5073011;28;20056;-70
2020/12/06 07:28:57;;;;;;;7.75;4.35;;;;;;;;;;5072450;28;20378;-71
2020/12/06 07:31:23;;;;;;;7.10;4.22;;;;;;;;;;5071783;28;20032;-72
2020/12/06 07:33:50;;;;;;;8.38;4.93;;;;;;;;;;5072048;28;20103;-70
2020/12/06 07:36:16;;;;;;;10.23;4.72;;;;;;;;;;5072454;28;20013;-71
2020/12/06 07:38:43;;;;;;;7.65;4.60;;;;;;;;;;5072698;28;20024;-71
2020/12/06 07:41:09;;;;;;;7.15;4.65;;;;;;;;;;5076195;28;20103;-72
2020/12/06 07:43:35;;;;;;;7.15;4.10;;;;;;;;;;5074903;28;20370;-71
2020/12/06 07:46:18;;;;;;;8.13;4.88;;;;;;;;;;5067837;28;20123;-72
2020/12/06 07:48:44;;;;;;;6.68;4.38;;;;;;;;;;5076414;28;20020;-72
2020/12/06 07:51:11;;;;;;;9.10;5.20;;;;;;;;;;5075477;28;20029;-72
2020/12/06 07:53:47;;;;;;;8.52;4.72;;;;;;;;;;5091972;28;20027;-71
2020/12/06 07:56:14;;;;;;;8.43;4.45;;;;;;;;;;5076201;28;20505;-70
2020/12/06 07:58:43;;;;;;;6.07;3.50;;;;;;;;;;5075742;28;20069;-71
2020/12/06 08:01:10;;;;;;;7.82;4.43;;;;;;;;;;5074575;28;20124;-72
2020/12/06 08:03:36;;;;;;;7.35;4.53;;;;;;;;;;5073338;28;20522;-71
2020/12/06 08:06:22;;;;;;;7.72;4.40;;;;;;;;;;5070884;28;20032;-69
2020/12/06 08:08:51;;;;;;;9.75;4.60;;;;;;;;;;5072624;28;20024;-71
2020/12/06 08:11:18;;;;;;;6.35;4.25;;;;;;;;;;5073567;28;20025;-71
2020/12/06 08:13:48;;;;;;;8.30;5.22;;;;;;;;;;5068094;28;20024;-71
2020/12/06 08:16:14;;;;;;;7.75;4.40;;;;;;;;;;5072407;28;20032;-72
2020/12/06 08:18:41;;;;;;;5.88;3.38;;;;;;;;;;5072480;28;20092;-71
2020/12/06 08:21:08;;;;;;;6.88;4.75;;;;;;;;;;5070403;28;20031;-69
2020/12/06 08:23:36;;;;;;;6.63;4.50;;;;;;;;;;5072271;28;20496;-72
2020/12/06 08:26:03;;;;;;;6.45;3.40;;;;;;;;;;5071173;28;20067;-69
2020/12/06 08:28:30;;;;;;;6.43;3.60;;;;;;;;;;5071850;28;20358;-70
2020/12/06 08:30:56;;;;;;;8.90;3.72;;;;;;;;;;5072526;28;20474;-71
2020/12/06 08:33:23;;;;;;;8.35;5.05;;;;;;;;;;5072041;28;20025;-71
2020/12/06 08:35:53;;;;;;;9.95;5.18;;;;;;;;;;5073645;28;20025;-72
2020/12/06 08:38:26;;;;;;;7.63;4.53;;;;;;;;;;5072333;28;20016;-71
2020/12/06 08:41:03;;;;;;;10.90;5.07;;;;;;;;;;5072235;28;20032;-70
2020/12/06 08:43:47;;;;;;;9.63;5.07;;;;;;;;;;5074002;28;20374;-72
2020/12/06 08:46:18;;;;;;;6.90;4.32;;;;;;;;;;5073590;28;20033;-72
2020/12/06 08:48:45;;;;;;;5.75;4.68;;;;;;;;;;5072525;28;20031;-70
2020/12/06 08:51:31;;;;;;;5.72;4.38;;;;;;;;;;5073528;28;20024;-71
2020/12/06 08:53:58;;;;;;;11.73;4.80;;;;;;;;;;5073186;28;20040;-70
2020/12/06 08:56:25;;;;;;;5.82;3.53;;;;;;;;;;5072352;28;20013;-68
2020/12/06 08:58:51;;;;;;;9.68;5.00;;;;;;;;;;5074170;28;20024;-69
2020/12/06 09:01:17;;;;;;;5.65;4.38;;;;;;;;;;5074444;28;20028;-70
2020/12/06 09:03:43;;;;;;;7.15;4.72;;;;;;;;;;5074978;28;20024;-70
2020/12/06 09:06:16;;;;;;;10.27;5.65;;;;;;;;;;5074914;28;20458;-70
2020/12/06 09:08:43;;;;;;;12.50;7.85;;;;;;;;;;5073959;28;20037;-68
2020/12/06 09:11:19;;;;;;;11.43;7.28;;;;;;;;;;5075030;28;20028;-71
2020/12/06 09:13:46;;;;;;;12.43;6.88;;;;;;;;;;5072937;28;20027;-72
2020/12/06 09:16:12;;;;;;;10.57;5.65;;;;;;;;;;5074423;28;20017;-73
2020/12/06 09:18:39;;;;;;;8.70;5.13;;;;;;;;;;5074483;28;20016;-69
2020/12/06 09:21:05;;;;;;;7.93;5.68;;;;;;;;;;5074240;28;20020;-71
2020/12/06 09:23:32;;;;;;;11.05;7.78;;;;;;;;;;5074033;28;20027;-74
2020/12/06 09:26:01;;;;;;;10.95;4.85;;;;;;;;;;5072232;28;20055;-69
2020/12/06 09:28:28;;;;;;;11.18;6.45;;;;;;;;;;5070646;28;20048;-72
2020/12/06 09:30:54;;;;;;;10.48;6.13;;;;;;;;;;5072776;28;20108;-72
2020/12/06 09:33:20;;;;;;;7.35;4.93;;;;;;;;;;5074428;28;20028;-69
2020/12/06 09:35:47;;;;;;;9.63;5.72;;;;;;;;;;5074020;28;20129;-75
2020/12/06 09:38:13;;;;;;;15.77;8.88;;;;;;;;;;5074544;28;20028;-71
2020/12/06 09:40:40;;;;;;;7.80;4.50;;;;;;;;;;5089588;28;20374;-72
2020/12/06 09:43:06;;;;;;;10.55;6.40;;;;;;;;;;5074059;28;20021;-74
2020/12/06 09:45:32;;;;;;;7.35;4.93;;;;;;;;;;5087528;28;20020;-71
2020/12/06 09:47:58;;;;;;;10.05;5.57;;;;;;;;;;5066290;28;20024;-72
2020/12/06 09:50:24;;;;;;;11.45;5.63;;;;;;;;;;5082161;28;20474;-73
2020/12/06 09:52:50;;;;;;;7.55;4.65;;;;;;;;;;5070047;28;20111;-71
2020/12/06 09:55:16;;;;;;;10.80;6.32;;;;;;;;;;5073121;28;20025;-73
2020/12/06 09:57:43;;;;;;;8.05;4.70;;;;;;;;;;5073081;28;20474;-74
2020/12/06 10:00:09;;;;;;;9.98;5.03;;;;;;;;;;5063891;28;20506;-73
2020/12/06 10:02:36;;;;;;;10.98;5.75;;;;;;;;;;5065543;28;20074;-70
2020/12/06 10:05:02;;;;;;;10.45;5.28;;;;;;;;;;5070858;28;20520;-72
2020/12/06 10:07:28;;;;;;;15.07;5.78;;;;;;;;;;5072525;28;20031;-75
2020/12/06 10:09:55;;;;;;;10.90;5.68;;;;;;;;;;5073497;28;20378;-76
2020/12/06 10:12:21;;;;;;;8.05;5.40;;;;;;;;;;5073313;28;20025;-73
2020/12/06 10:14:47;;;;;;;7.90;4.70;;;;;;;;;;5072950;28;20474;-74
2020/12/06 10:17:13;;;;;;;6.47;3.80;;;;;;;;;;5071558;28;20435;-74
2020/12/06 10:19:39;;;;;;;7.70;4.32;;;;;;;;;;5069802;28;20032;-75
2020/12/06 10:22:05;;;;;;;9.55;4.22;;;;;;;;;;5077717;28;20834;-78
2020/12/06 10:24:31;;;;;;;11.35;5.57;;;;;;;;;;5073257;28;20462;-72
2020/12/06 10:26:58;;;;;;;13.40;7.38;;;;;;;;;;5072409;28;20027;-73
2020/12/06 10:29:24;;;;;;;8.25;5.32;;;;;;;;;;5070247;28;20379;-74
2020/12/06 10:31:51;;;;;;;11.38;5.13;;;;;;;;;;5072347;28;20028;-75
2020/12/06 10:34:17;;;;;;;14.77;7.68;;;;;;;;;;5073287;28;20497;-71
2020/12/06 10:36:43;;;;;;;10.30;5.18;;;;;;;;;;5071487;28;20036;-73
2020/12/06 10:39:09;;;;;;;10.43;4.85;;;;;;;;;;5071736;28;20027;-74
2020/12/06 10:41:36;;;;;;;7.00;4.28;;;;;;;;;;5073986;28;20030;-77
2020/12/06 10:44:02;;;;;;;8.07;4.68;;;;;;;;;;5071467;28;20056;-72
2020/12/06 10:46:29;;;;;;;8.18;4.57;;;;;;;;;;5070400;28;20032;-72
2020/12/06 10:48:55;;;;;;;7.45;4.53;;;;;;;;;;5071963;28;20047;-72
2020/12/06 10:51:21;;;;;;;7.07;4.22;;;;;;;;;;5071812;28;20020;-73
2020/12/06 10:53:47;;;;;;;6.63;3.88;;;;;;;;;;5071800;28;20466;-73
2020/12/06 10:56:13;;;;;;;9.90;5.60;;;;;;;;;;5074017;28;20024;-71
2020/12/06 10:58:39;;;;;;;10.60;5.53;;;;;;;;;;5072037;28;20025;-71
2020/12/06 11:01:05;;;;;;;10.10;6.07;;;;;;;;;;5069350;28;20024;-72
2020/12/06 11:03:31;;;;;;;12.52;6.97;;;;;;;;;;5069166;28;20021;-73
2020/12/06 11:05:57;;;;;;;10.55;5.60;;;;;;;;;;5069868;28;20056;-78
2020/12/06 11:08:25;;;;;;;6.63;4.60;;;;;;;;;;5071881;28;20039;-73
2020/12/06 11:10:51;;;;;;;12.20;6.72;;;;;;;;;;5072586;28;20044;-73
2020/12/06 11:13:17;;;;;;;10.60;5.78;;;;;;;;;;5071532;28;20025;-73
2020/12/06 11:15:45;;;;;;;12.57;6.18;;;;;;;;;;5077916;28;20052;-72
2020/12/06 11:18:12;;;;;;;9.55;4.90;;;;;;;;;;5076290;28;20016;-71
2020/12/06 11:20:39;;;;;;;6.55;4.10;;;;;;;;;;5076267;28;20099;-72
2020/12/06 11:23:06;;;;;;;7.75;4.80;;;;;;;;;;5078367;28;20020;-73
2020/12/06 11:25:34;;;;;;;9.07;5.55;;;;;;;;;;5078053;28;20048;-71
2020/12/06 11:28:01;;;;;;;14.55;7.85;;;;;;;;;;5078721;28;20028;-75
2020/12/06 11:30:28;;;;;;;10.38;5.80;;;;;;;;;;5078478;28;20472;-72
2020/12/06 11:32:55;;;;;;;9.75;6.90;;;;;;;;;;5077279;28;20039;-77
2020/12/06 11:35:22;;;;;;;7.25;3.92;;;;;;;;;;5075922;28;20056;-70
2020/12/06 11:37:49;;;;;;;8.30;5.05;;;;;;;;;;5074145;28;20534;-75
2020/12/06 11:40:16;;;;;;;8.90;4.68;;;;;;;;;;5075602;28;20104;-71
2020/12/06 11:42:43;;;;;;;7.63;4.38;;;;;;;;;;5075707;28;20029;-70
2020/12/06 11:45:10;;;;;;;9.73;4.85;;;;;;;;;;5076543;28;20021;-77
2020/12/06 11:47:38;;;;;;;12.30;4.80;;;;;;;;;;5093472;28;20062;-72
2020/12/06 11:50:05;;;;;;;8.18;5.05;;;;;;;;;;5076254;28;20086;-73
2020/12/06 11:52:33;;;;;;;6.53;3.88;;;;;;;;;;5077472;28;20119;-77
2020/12/06 11:55:00;;;;;;;8.95;5.53;;;;;;;;;;5076223;28;20047;-73
2020/12/06 11:57:27;;;;;;;10.88;4.70;;;;;;;;;;5077803;28;20032;-72
2020/12/06 11:59:54;;;;;;;10.30;5.07;;;;;;;;;;5078104;28;20028;-72
2020/12/06 12:02:22;;;;;;;10.43;5.38;;;;;;;;;;5077634;28;20374;-73
2020/12/06 12:04:50;;;;;;;11.73;5.18;;;;;;;;;;5077737;28;20032;-74
2020/12/06 12:07:18;;;;;;;7.85;4.22;;;;;;;;;;5077292;28;20481;-70
2020/12/06 12:09:45;;;;;;;8.50;5.05;;;;;;;;;;5074330;28;20099;-71
2020/12/06 12:12:11;;;;;;;24.80;10.98;;;;;;;;;;5076062;28;20130;-74
2020/12/06 12:14:37;;;;;;;8.50;4.75;;;;;;;;;;5075998;28;20033;-70
2020/12/06 12:17:03;;;;;;;6.45;4.18;;;;;;;;;;5075929;28;20553;-72
2020/12/06 12:19:29;;;;;;;8.38;4.45;;;;;;;;;;5077516;28;20028;-71
2020/12/06 12:21:55;;;;;;;11.45;5.10;;;;;;;;;;5066381;28;20388;-70
2020/12/06 12:24:21;;;;;;;11.48;6.22;;;;;;;;;;5070577;28;20389;-71
2020/12/06 12:26:47;;;;;;;8.52;5.35;;;;;;;;;;5069306;28;20100;-69
2020/12/06 12:29:13;;;;;;;7.85;4.35;;;;;;;;;;5088774;28;20416;-69
2020/12/06 12:31:43;;;;;;;7.05;5.03;;;;;;;;;;5072294;28;20425;-70
2020/12/06 12:34:10;;;;;;;8.45;4.53;;;;;;;;;;5075023;28;20032;-73
2020/12/06 12:36:36;;;;;;;9.00;5.25;;;;;;;;;;5074878;28;20095;-72
2020/12/06 12:39:02;;;;;;;6.90;4.53;;;;;;;;;;5073825;28;20032;-70
2020/12/06 12:41:34;;;;;;;10.13;5.05;;;;;;;;;;5071858;28;20029;-71
2020/12/06 12:44:00;;;;;;;13.65;4.85;;;;;;;;;;5074020;28;20359;-73
2020/12/06 12:46:26;;;;;;;11.50;5.45;;;;;;;;;;5089777;28;20036;-72
2020/12/06 12:48:52;;;;;;;7.50;4.93;;;;;;;;;;5073231;28;20037;-72
2020/12/06 12:51:18;;;;;;;7.43;4.70;;;;;;;;;;5073757;28;20021;-70
2020/12/06 12:53:44;;;;;;;9.98;5.65;;;;;;;;;;5074395;28;20028;-74
2020/12/06 12:56:10;;;;;;;11.00;5.70;;;;;;;;;;5074120;28;20079;-70
2020/12/06 12:58:36;;;;;;;17.77;8.48;;;;;;;;;;5084660;28;20366;-73
2020/12/06 13:01:03;;;;;;;12.73;7.28;;;;;;;;;;5072801;28;20063;-73
2020/12/06 13:03:29;;;;;;;12.25;5.82;;;;;;;;;;5072733;28;20422;-73
2020/12/06 13:05:55;;;;;;;11.75;6.13;;;;;;;;;;5072223;28;20116;-72
2020/12/06 13:08:21;;;;;;;5.43;3.78;;;;;;;;;;5074342;28;20024;-72
2020/12/06 13:10:47;;;;;;;8.65;5.18;;;;;;;;;;5071294;28;20032;-72
2020/12/06 13:13:13;;;;;;;7.25;4.68;;;;;;;;;;5075010;28;20021;-70
2020/12/06 13:15:40;;;;;;;6.28;4.22;;;;;;;;;;5087325;28;20048;-71
2020/12/06 13:18:06;;;;;;;7.53;4.00;;;;;;;;;;5073110;28;20031;-72
2020/12/06 13:20:32;;;;;;;8.25;4.13;;;;;;;;;;5073333;28;20025;-72
2020/12/06 13:22:58;;;;;;;9.50;5.03;;;;;;;;;;5073712;28;20036;-73
2020/12/06 13:25:24;;;;;;;6.32;4.05;;;;;;;;;;5088379;28;20131;-73
2020/12/06 13:27:51;;;;;;;9.23;4.95;;;;;;;;;;5073307;28;20020;-73
2020/12/06 13:30:17;;;;;;;6.47;3.67;;;;;;;;;;5073311;28;20052;-70
2020/12/06 13:32:43;;;;;;;8.18;3.83;;;;;;;;;;5073089;28;20470;-72
2020/12/06 13:35:09;;;;;;;8.00;4.30;;;;;;;;;;5073497;28;20466;-71
2020/12/06 13:37:35;;;;;;;6.45;3.85;;;;;;;;;;5073727;28;20367;-72
2020/12/06 13:40:01;;;;;;;7.00;4.72;;;;;;;;;;5073048;28;20021;-74
2020/12/06 13:42:27;;;;;;;13.07;5.93;;;;;;;;;;5088825;28;20123;-74
2020/12/06 13:44:53;;;;;;;8.07;3.80;;;;;;;;;;5073392;28;20025;-71
2020/12/06 13:47:19;;;;;;;6.45;3.55;;;;;;;;;;5072457;28;20043;-71
2020/12/06 13:49:45;;;;;;;8.13;4.45;;;;;;;;;;5071688;28;20021;-72
2020/12/06 13:52:12;;;;;;;6.78;3.42;;;;;;;;;;5071905;28;20020;-72
2020/12/06 13:54:38;;;;;;;5.45;4.18;;;;;;;;;;5070760;28;20078;-71
2020/12/06 13:57:04;;;;;;;8.30;3.92;;;;;;;;;;5071903;28;20016;-76
2020/12/06 13:59:31;;;;;;;17.77;8.90;;;;;;;;;;5071784;28;20021;-75
2020/12/06 14:01:57;;;;;;;31.38;15.20;;;;;;;;;;5069443;28;20356;-70
2020/12/06 14:04:23;;;;;;;6.97;4.15;;;;;;;;;;5070479;28;20454;-78
2020/12/06 14:06:53;;;;;;;8.05;4.47;;;;;;;;;;5071298;28;20028;-72
2020/12/06 14:09:19;;;;;;;8.88;4.65;;;;;;;;;;5069688;28;20036;-76
2020/12/06 14:11:45;;;;;;;9.77;5.28;;;;;;;;;;5071951;28;20473;-73
2020/12/06 14:14:12;;;;;;;8.77;4.65;;;;;;;;;;5073247;28;20043;-77
2020/12/06 14:16:38;;;;;;;8.32;4.80;;;;;;;;;;5068771;28;20021;-71
2020/12/06 14:19:04;;;;;;;10.18;5.22;;;;;;;;;;5072369;28;20370;-70
2020/12/06 14:21:30;;;;;;;11.88;4.68;;;;;;;;;;5072028;28;20024;-71
2020/12/06 14:23:57;;;;;;;9.15;4.43;;;;;;;;;;5072281;28;20035;-71
2020/12/06 14:26:23;;;;;;;9.02;5.10;;;;;;;;;;5073225;28;20124;-69
2020/12/06 14:28:49;;;;;;;9.63;5.47;;;;;;;;;;5073344;28;20016;-71
2020/12/06 14:31:15;;;;;;;11.20;5.65;;;;;;;;;;5073645;28;20089;-70
2020/12/06 14:33:41;;;;;;;6.90;4.85;;;;;;;;;;5072606;28;20028;-71